< Cyclone 197206 1972 Season Cyclone 197208 >
Cyclone 197207 (CARLOTTA)
General InformationTrack Information on Google Maps || ResourceGoogle EarthGE AnimationAtom FeedGeoJSON
Detalied Best Track (Time Zone = UTC)
Year Month Day Hour Lat. Long. Pressure (hPa) Wind (kt) Class Image Chart
1972 1 4 23 -9.4 151.8 1003 0 0 -- --
1972 1 5 02 -9.9 152.2 1002 0 0 -- --
1972 1 5 05 -10.4 152.4 1000 0 0 -- --
1972 1 5 08 -10.9 152.5 999 0 0 -- --
1972 1 5 11 -11.4 152.6 999 0 0 -- --
1972 1 5 14 -11.9 152.7 999 0 0 -- --
1972 1 5 17 -12.5 152.8 997 0 0 -- --
1972 1 5 20 -13.0 152.8 997 0 0 -- --
1972 1 5 23 -13.6 152.6 997 0 0 -- --
1972 1 6 02 -14.1 152.5 997 0 0 -- --
1972 1 6 05 -14.7 152.8 997 0 0 -- --
1972 1 6 08 -15.1 153.2 997 0 0 -- --
1972 1 6 11 -15.4 153.8 997 0 0 -- --
1972 1 6 14 -15.6 154.4 997 0 0 -- --
1972 1 6 17 -15.8 154.9 997 0 0 -- --
1972 1 6 20 -15.9 155.5 997 0 0 -- --
1972 1 6 23 -15.8 155.9 996 0 0 -- --
1972 1 7 02 -15.7 156.3 996 0 0 -- --
1972 1 7 05 -15.6 156.6 995 0 0 -- --
1972 1 7 08 -15.4 157.1 995 0 0 -- --
1972 1 7 11 -15.2 157.4 994 0 0 -- --
1972 1 7 14 -15.1 157.6 994 0 0 -- --
1972 1 7 17 -14.9 158.0 993 0 0 -- --
1972 1 7 20 -14.7 158.2 993 0 0 -- --
1972 1 7 23 -14.5 158.4 992 0 0 -- --
1972 1 8 02 -14.3 158.5 992 0 0 -- --
1972 1 8 05 -14.1 158.6 991 0 0 -- --
1972 1 8 08 -13.9 158.7 991 0 0 -- --
1972 1 8 11 -13.7 158.8 990 0 0 -- --
1972 1 8 14 -13.5 158.9 990 0 0 -- --
1972 1 8 17 -13.3 159.0 989 0 0 -- --
1972 1 8 20 -13.1 159.1 989 0 0 -- --
1972 1 8 23 -12.9 159.2 988 0 0 -- --
1972 1 9 02 -12.7 159.2 988 0 0 -- --
1972 1 9 05 -12.4 159.3 987 0 0 -- --
1972 1 9 08 -12.2 159.3 987 0 0 -- --
1972 1 9 11 -12.0 159.3 986 0 0 -- --
1972 1 9 14 -11.8 159.3 986 0 0 -- --
1972 1 9 17 -11.6 159.1 985 0 0 -- --
1972 1 9 20 -11.4 159.0 985 0 0 -- --
1972 1 9 23 -11.4 158.8 987 0 0 -- --
1972 1 10 02 -11.1 158.6 984 0 0 -- --
1972 1 10 05 -10.9 158.5 983 0 0 -- --
1972 1 10 08 -10.8 158.4 983 0 0 -- --
1972 1 10 11 -10.6 158.3 982 0 0 -- --
1972 1 10 14 -10.5 158.1 982 0 0 -- --
1972 1 10 17 -10.4 157.4 981 0 0 -- --
1972 1 10 20 -10.2 157.7 981 0 0 -- --
1972 1 10 23 -10.0 157.6 980 0 0 -- --
1972 1 11 02 -9.7 157.7 980 0 0 -- --
1972 1 11 05 -9.6 158.0 979 0 0 -- --
1972 1 11 08 -9.5 158.3 979 0 0 -- --
1972 1 11 11 -9.5 158.8 978 0 0 -- --
1972 1 11 14 -9.7 159.3 977 0 0 -- --
1972 1 11 15 -9.8 159.4 977 0 0 -- --
1972 1 11 17 -9.9 159.7 976 0 0 -- --
1972 1 11 20 -10.1 160.1 975 0 0 -- --
1972 1 11 23 -10.3 160.4 974 0 0 -- --
1972 1 12 02 -10.5 160.8 973 0 0 -- --
1972 1 12 05 -10.7 161.1 972 0 0 -- --
1972 1 12 08 -10.8 161.3 971 0 0 -- --
1972 1 12 11 -11.0 161.6 970 0 0 -- --
1972 1 12 14 -11.3 162.2 969 0 0 -- --
1972 1 12 17 -11.7 162.8 968 0 0 -- --
1972 1 12 20 -12.1 163.3 967 0 0 -- --
1972 1 12 23 -12.6 163.7 966 0 0 -- --
1972 1 13 02 -13.1 164.1 965 0 0 -- --
1972 1 13 05 -13.7 164.4 964 0 0 -- --
1972 1 13 08 -14.3 164.7 962 0 0 -- --
1972 1 13 10 -15.0 164.8 960 0 0 -- --
1972 1 13 11 -15.0 164.8 960 0 0 -- --
1972 1 13 14 -15.5 164.9 958 0 0 -- --
1972 1 13 17 -16.2 164.9 956 0 0 -- --
1972 1 13 20 -16.9 164.9 954 0 0 -- --
1972 1 13 23 -17.4 164.8 952 0 0 -- --
1972 1 14 02 -18.1 164.6 950 0 0 -- --
1972 1 14 05 -18.5 164.4 949 0 0 -- --
1972 1 14 08 -18.9 164.1 948 0 0 -- --
1972 1 14 11 -19.2 163.9 947 0 0 -- --
1972 1 14 14 -19.5 163.6 946 0 0 -- --
1972 1 14 17 -19.7 163.4 945 0 0 -- --
1972 1 14 20 -19.9 163.3 944 0 0 -- --
1972 1 14 23 -20.1 163.1 943 0 0 -- --
1972 1 15 02 -20.2 163.0 942 0 0 -- --
1972 1 15 05 -20.2 162.9 941 0 0 -- --
1972 1 15 08 -20.3 162.8 940 0 0 -- --
1972 1 15 11 -20.4 162.7 940 0 0 -- --
1972 1 15 14 -20.5 162.5 940 0 0 -- --
1972 1 15 17 -20.6 162.4 940 0 0 -- --
1972 1 15 20 -20.7 162.3 940 0 0 -- --
1972 1 15 23 -20.8 162.1 940 0 0 -- --
1972 1 16 02 -20.8 161.8 940 0 0 -- --
1972 1 16 05 -20.9 161.4 940 0 0 -- --
1972 1 16 08 -20.6 160.9 940 0 0 -- --
1972 1 16 11 -20.2 160.7 940 0 0 -- --
1972 1 16 14 -19.8 160.7 940 0 0 -- --
1972 1 16 17 -19.4 160.9 940 0 0 -- --
1972 1 16 20 -19.4 160.9 940 0 0 -- --
1972 1 16 23 -18.8 161.7 940 0 0 -- --
1972 1 17 02 -18.6 162.1 940 0 0 -- --
1972 1 17 05 -18.3 162.8 940 0 0 -- --
1972 1 17 08 -18.0 163.5 940 0 0 -- --
1972 1 17 11 -17.8 164.3 940 0 0 -- --
1972 1 17 14 -17.9 165.1 940 0 0 -- --
1972 1 17 17 -18.0 165.8 940 0 0 -- --
1972 1 17 20 -18.2 166.5 940 0 0 -- --
1972 1 17 23 -18.4 167.1 940 0 0 -- --
1972 1 18 02 -18.5 167.7 940 0 0 -- --
1972 1 18 05 -18.6 168.3 940 0 0 -- --
1972 1 18 08 -18.9 168.6 940 0 0 -- --
1972 1 18 11 -19.2 169.0 940 0 0 -- --
1972 1 18 14 -19.6 169.3 940 0 0 -- --
1972 1 18 17 -20.0 169.7 940 0 0 -- --
1972 1 18 20 -20.4 170.0 940 0 0 -- --
1972 1 18 23 -20.9 170.2 940 0 0 -- --
1972 1 19 02 -21.3 170.4 942 0 0 -- --
1972 1 19 05 -21.6 170.6 944 0 0 -- --
1972 1 19 08 -21.9 170.7 946 0 0 -- --
1972 1 19 11 -22.2 170.9 948 0 0 -- --
1972 1 19 14 -22.6 171.0 951 0 0 -- --
1972 1 19 17 -22.9 171.2 954 0 0 -- --
1972 1 19 20 -23.2 171.4 957 0 0 -- --
1972 1 19 23 -23.5 171.5 960 0 0 -- --
1972 1 20 02 -23.9 171.7 963 0 0 -- --
1972 1 20 05 -24.1 171.8 966 0 0 -- --
1972 1 20 08 -24.4 172.0 969 0 0 -- --
1972 1 20 11 -24.8 172.2 972 0 0 -- --
1972 1 20 14 -25.1 172.3 975 0 0 -- --
1972 1 20 17 -25.4 172.5 978 0 0 -- --
1972 1 20 20 -25.7 172.6 981 0 0 -- --
1972 1 20 23 -26.0 172.7 984 0 0 -- --
1972 1 21 02 -26.4 172.8 987 0 0 -- --
1972 1 21 05 -26.9 173.0 990 0 0 -- --
1972 1 21 08 -27.3 173.2 992 0 0 -- --
1972 1 21 11 -27.8 173.3 994 0 0 -- --
1972 1 21 14 -28.2 173.4 996 0 0 -- --
1972 1 21 17 -28.7 173.5 998 0 0 -- --
1972 1 21 20 -29.2 173.5 1000 0 0 -- --
< Cyclone 197206 1972 Season Cyclone 197208 >

Help